Crown Point, Vermont
Current Conditions -  °F | °C
As of 11:55 AM on Thursday 30 Oct 2014 (Local Time) from K6B0 Reporting Station
Overcast Overcast  
Wind Chill: 46°   Ceiling: 3800
Heat Index: 49°   Visibility: 10mi
Dew Point: 39°   Wind: 7mph
Humidity: 69%   Direction: 360°N
Pressure: 29.95"   Gusts: NA
Location:  44.0804°N, 73.3324°W
Report Text: K6B0 301555Z AUTO 36006KT 10SM SCT021 BKN038 OVC047 09/04 A2995 RMK AO2 T00930038
Loading
Personal Weather Stations






























Interactive Weather Map
Tropical Storm Tracking
New forecast layout! Learn more

10-Day Weather Forecast

Advertisements
Track Severe Weather on mobile